Time;durP1;ratioP1;P1;durP2;ratioP2;P2;SDS_P1;SDS_P2;PMS_P1;PMS_P2;Temp;Humidity;BMP_temperature;BMP_pressure;BME280_temperature;BME280_humidity;BME280_pressure;Samples;Min_cycle;Max_cycle;Signal;HPM_P1;HPM_P2
2022/07/29 00:02:21;;;;;;;3.20;1.27;;;17.80;92.90;;;;;;5071362;28;20016;-75
2022/07/29 00:04:46;;;;;;;7.00;1.60;;;17.80;93.10;;;;;;5053194;28;20023;-76
2022/07/29 00:07:12;;;;;;;4.18;1.40;;;17.80;93.20;;;;;;5053308;28;20041;-74
2022/07/29 00:09:38;;;;;;;3.22;1.10;;;17.80;93.30;;;;;;5071580;28;20020;-76
2022/07/29 00:12:04;;;;;;;6.30;1.38;;;17.80;93.40;;;;;;5071176;28;20017;-76
2022/07/29 00:14:29;;;;;;;2.72;1.38;;;17.80;93.50;;;;;;5071486;28;20024;-76
2022/07/29 00:16:55;;;;;;;5.00;1.40;;;17.80;93.60;;;;;;5071429;28;20021;-76
2022/07/29 00:19:20;;;;;;;2.30;1.20;;;17.80;93.70;;;;;;5071538;28;20025;-75
2022/07/29 00:21:46;;;;;;;2.47;1.35;;;17.70;93.70;;;;;;5071535;28;20496;-76
2022/07/29 00:24:12;;;;;;;1.85;1.23;;;17.70;93.80;;;;;;5073066;28;20029;-75
2022/07/29 00:26:37;;;;;;;4.47;1.50;;;17.70;93.90;;;;;;5071607;28;20024;-75
2022/07/29 00:29:04;;;;;;;2.70;1.27;;;17.60;94.10;;;;;;5071347;28;20095;-76
2022/07/29 00:31:29;;;;;;;6.43;1.52;;;17.70;94.20;;;;;;5071025;28;20032;-77
2022/07/29 00:33:55;;;;;;;5.38;1.42;;;17.70;94.40;;;;;;5071120;28;20491;-75
2022/07/29 00:36:21;;;;;;;6.10;1.30;;;17.60;94.50;;;;;;5070924;28;20016;-76
2022/07/29 00:38:50;;;;;;;5.68;1.33;;;17.60;94.60;;;;;;5052906;28;20090;-75
2022/07/29 00:41:17;;;;;;;2.92;1.40;;;17.60;94.70;;;;;;5070666;28;20021;-76
2022/07/29 00:43:43;;;;;;;6.55;1.58;;;17.60;94.90;;;;;;5070506;28;20025;-76
2022/07/29 00:46:09;;;;;;;5.32;1.42;;;17.50;95.00;;;;;;5070607;28;20028;-78
2022/07/29 00:48:35;;;;;;;4.25;1.20;;;17.60;95.20;;;;;;5070503;28;20020;-76
2022/07/29 00:51:02;;;;;;;4.30;1.35;;;17.50;95.30;;;;;;5070770;28;20062;-76
2022/07/29 00:53:29;;;;;;;6.05;1.67;;;17.50;95.40;;;;;;5070482;28;20070;-76
2022/07/29 00:55:55;;;;;;;1.35;1.10;;;17.50;95.50;;;;;;5070656;28;20521;-76
2022/07/29 00:58:21;;;;;;;5.90;1.80;;;17.50;95.60;;;;;;5070207;28;20500;-75
2022/07/29 01:00:47;;;;;;;4.45;1.58;;;17.50;95.60;;;;;;5070573;28;20020;-76
2022/07/29 01:03:12;;;;;;;4.18;1.50;;;17.50;95.80;;;;;;5069995;28;20035;-76
2022/07/29 01:05:40;;;;;;;3.20;1.40;;;17.50;95.90;;;;;;5070179;28;20032;-76
2022/07/29 01:08:07;;;;;;;4.75;1.70;;;17.40;96.00;;;;;;5070708;28;20111;-77
2022/07/29 01:10:36;;;;;;;3.53;1.55;;;17.40;96.60;;;;;;5070202;28;20028;-76
2022/07/29 01:13:02;;;;;;;3.25;1.30;;;17.40;96.40;;;;;;5070262;28;20572;-75
2022/07/29 01:15:28;;;;;;;3.75;1.52;;;17.40;96.70;;;;;;5069913;28;20024;-75
2022/07/29 01:18:16;;;;;;;4.28;1.52;;;17.30;96.80;;;;;;5070076;28;20085;-76
2022/07/29 01:21:07;;;;;;;2.85;1.48;;;17.30;97.00;;;;;;5050622;28;20024;-76
2022/07/29 01:23:44;;;;;;;6.78;1.58;;;17.30;97.30;;;;;;5070678;28;20496;-76
2022/07/29 01:26:39;;;;;;;5.47;1.60;;;17.20;97.40;;;;;;5057633;28;20036;-76
2022/07/29 01:29:37;;;;;;;6.32;1.70;;;17.30;97.60;;;;;;5067183;28;20120;-75
2022/07/29 01:32:08;;;;;;;5.35;1.50;;;17.30;97.70;;;;;;5064097;28;20035;-76
2022/07/29 01:34:55;;;;;;;6.40;1.50;;;17.20;97.90;;;;;;5069900;28;20013;-76
2022/07/29 01:37:47;;;;;;;3.08;1.42;;;17.20;98.10;;;;;;5070646;28;20043;-76
2022/07/29 01:40:46;;;;;;;4.18;1.40;;;17.20;98.30;;;;;;4998553;28;20504;-75
2022/07/29 01:43:19;;;;;;;2.85;1.50;;;17.10;98.50;;;;;;5008263;28;20668;-76
2022/07/29 01:45:52;;;;;;;7.13;1.50;;;17.10;98.60;;;;;;5007911;28;20038;-75
2022/07/29 01:48:23;;;;;;;6.53;1.70;;;17.10;98.70;;;;;;5008202;28;20397;-76
2022/07/29 01:50:53;;;;;;;4.30;1.35;;;17.10;98.90;;;;;;5007939;28;20084;-77
2022/07/29 01:53:29;;;;;;;3.90;1.55;;;17.10;99.10;;;;;;5008165;28;20068;-76
2022/07/29 01:55:57;;;;;;;5.45;1.70;;;17.10;99.20;;;;;;5008007;28;20030;-75
2022/07/29 01:58:24;;;;;;;5.72;1.65;;;17.10;99.40;;;;;;5007890;28;20074;-75
2022/07/29 02:00:51;;;;;;;2.22;1.42;;;17.00;99.50;;;;;;5007633;28;20030;-76
2022/07/29 02:03:18;;;;;;;1.50;1.40;;;17.00;99.60;;;;;;5007309;28;20056;-76
2022/07/29 02:05:46;;;;;;;5.60;1.88;;;17.00;99.80;;;;;;5007704;28;20070;-76
2022/07/29 02:08:13;;;;;;;3.10;1.60;;;17.00;99.90;;;;;;5007817;28;20026;-74
2022/07/29 02:10:40;;;;;;;3.90;1.50;;;17.00;99.90;;;;;;5002259;28;20031;-75
2022/07/29 02:13:07;;;;;;;4.40;1.42;;;17.00;99.90;;;;;;4999528;28;20034;-76
2022/07/29 02:15:35;;;;;;;6.20;1.70;;;17.00;99.90;;;;;;5007201;28;20048;-76
2022/07/29 02:18:10;;;;;;;5.75;1.80;;;17.00;99.90;;;;;;5038083;28;20446;-75
2022/07/29 02:20:37;;;;;;;5.65;1.65;;;17.00;99.90;;;;;;5069954;28;20146;-76
2022/07/29 02:23:04;;;;;;;3.55;1.52;;;16.90;99.90;;;;;;5050355;28;20064;-75
2022/07/29 02:25:30;;;;;;;3.72;1.55;;;17.00;99.90;;;;;;5053241;28;20233;-75
2022/07/29 02:27:57;;;;;;;2.70;1.60;;;16.90;99.90;;;;;;5053415;28;20032;-76
2022/07/29 02:30:24;;;;;;;3.67;1.40;;;16.90;99.90;;;;;;5053156;28;20487;-76
2022/07/29 02:32:51;;;;;;;6.10;1.80;;;16.90;99.90;;;;;;5039562;28;20025;-76
2022/07/29 02:35:18;;;;;;;3.65;1.60;;;16.90;99.90;;;;;;5053190;28;20469;-76
2022/07/29 02:38:49;;;;;;;3.75;1.60;;;16.90;99.90;;;;;;5053080;28;20021;-75
2022/07/29 02:40:37;;;;;;;3.85;1.45;;;16.90;99.90;;;;;;5052797;28;20547;-76
2022/07/29 02:43:05;;;;;;;2.70;1.65;;;16.90;99.90;;;;;;5053052;28;20132;-76
2022/07/29 02:45:32;;;;;;;4.88;1.40;;;16.90;99.90;;;;;;5052957;28;20380;-76
2022/07/29 02:47:59;;;;;;;3.80;1.60;;;16.90;99.90;;;;;;5053024;28;20488;-75
2022/07/29 02:50:35;;;;;;;4.60;1.58;;;16.90;99.90;;;;;;5052965;28;20087;-76
2022/07/29 02:53:08;;;;;;;6.00;1.67;;;16.90;99.90;;;;;;5052725;28;20104;-76
2022/07/29 02:55:43;;;;;;;4.10;1.83;;;16.80;99.90;;;;;;5051605;28;20067;-77
2022/07/29 02:58:26;;;;;;;4.03;1.70;;;16.80;99.90;;;;;;5052742;28;20029;-75
2022/07/29 03:00:53;;;;;;;4.57;1.80;;;16.80;99.90;;;;;;5052226;28;20041;-77
2022/07/29 03:03:21;;;;;;;6.00;1.80;;;16.80;99.90;;;;;;5049687;28;20484;-76
2022/07/29 03:05:46;;;;;;;6.93;1.80;;;16.70;99.90;;;;;;5048604;28;20107;-76
2022/07/29 03:08:14;;;;;;;3.85;1.60;;;16.70;99.90;;;;;;5052554;28;20520;-75
2022/07/29 03:10:43;;;;;;;4.80;1.60;;;16.70;99.90;;;;;;5052712;28;20492;-75
2022/07/29 03:13:10;;;;;;;3.47;1.77;;;16.70;99.90;;;;;;5052247;28;20380;-76
2022/07/29 03:15:36;;;;;;;5.15;1.80;;;16.70;99.90;;;;;;5052127;28;20029;-75
2022/07/29 03:18:02;;;;;;;7.07;1.98;;;16.60;99.90;;;;;;5052618;28;20489;-75
2022/07/29 03:20:27;;;;;;;6.00;2.00;;;16.60;99.90;;;;;;5052385;28;20033;-76
2022/07/29 03:22:53;;;;;;;4.20;1.80;;;16.60;99.90;;;;;;5070494;28;20106;-76
2022/07/29 03:25:20;;;;;;;4.05;1.75;;;16.60;99.90;;;;;;5072089;28;20028;-75
2022/07/29 03:27:47;;;;;;;5.35;1.77;;;16.60;99.90;;;;;;5072338;28;20040;-75
2022/07/29 03:30:13;;;;;;;6.57;2.00;;;16.60;99.90;;;;;;5071737;28;20488;-75
2022/07/29 03:32:40;;;;;;;7.35;2.10;;;16.60;99.90;;;;;;5072079;28;20033;-76
2022/07/29 03:35:06;;;;;;;4.47;1.90;;;16.60;99.90;;;;;;5070778;28;20327;-76
2022/07/29 03:37:33;;;;;;;3.83;2.20;;;16.60;99.90;;;;;;5071944;28;20021;-75
2022/07/29 03:40:01;;;;;;;6.45;2.50;;;16.60;99.90;;;;;;5072181;28;20386;-76
2022/07/29 03:42:32;;;;;;;7.05;2.50;;;16.50;99.90;;;;;;5071916;28;20017;-75
2022/07/29 03:45:07;;;;;;;4.28;2.20;;;16.50;99.90;;;;;;5071289;28;20033;-77
2022/07/29 03:47:37;;;;;;;4.45;2.10;;;16.50;99.90;;;;;;5071900;28;20499;-76
2022/07/29 03:50:08;;;;;;;3.70;2.28;;;16.50;99.90;;;;;;5071499;28;20040;-76
2022/07/29 03:52:34;;;;;;;6.05;2.42;;;16.50;99.90;;;;;;5071904;28;20067;-76
2022/07/29 03:55:00;;;;;;;6.68;2.15;;;16.40;99.90;;;;;;5070821;28;20028;-77
2022/07/29 03:57:28;;;;;;;4.18;2.30;;;16.40;99.90;;;;;;5039736;28;20051;-76
2022/07/29 03:59:54;;;;;;;3.35;1.92;;;16.40;99.90;;;;;;5070836;28;20025;-76
2022/07/29 04:02:21;;;;;;;4.38;2.15;;;16.40;99.90;;;;;;5071453;28;20036;-76
2022/07/29 04:04:46;;;;;;;6.55;2.45;;;16.40;99.90;;;;;;5071096;28;20032;-76
2022/07/29 04:07:13;;;;;;;6.13;2.60;;;16.40;99.90;;;;;;5071101;28;20028;-77
2022/07/29 04:09:39;;;;;;;4.95;2.40;;;16.40;99.90;;;;;;5053188;28;20024;-75
2022/07/29 04:12:05;;;;;;;4.90;2.40;;;16.40;99.90;;;;;;5070664;28;20021;-76
2022/07/29 04:14:33;;;;;;;7.68;2.60;;;16.40;99.90;;;;;;5064858;28;20361;-75
2022/07/29 04:16:59;;;;;;;4.40;2.33;;;16.40;99.90;;;;;;5063372;28;20449;-76
2022/07/29 04:19:25;;;;;;;6.07;2.33;;;16.40;99.90;;;;;;5070953;28;20021;-75
2022/07/29 04:21:51;;;;;;;5.57;2.63;;;16.40;99.90;;;;;;5070867;28;20488;-76
2022/07/29 04:24:16;;;;;;;5.53;2.42;;;16.40;99.90;;;;;;5070766;28;20032;-76
2022/07/29 04:26:42;;;;;;;5.68;2.50;;;16.40;99.90;;;;;;5070940;28;20028;-76
2022/07/29 04:29:08;;;;;;;5.28;2.35;;;16.40;99.90;;;;;;5052374;28;20024;-76
2022/07/29 04:31:33;;;;;;;6.15;2.50;;;16.40;99.90;;;;;;5070672;28;20024;-76
2022/07/29 04:33:59;;;;;;;6.10;2.63;;;16.50;99.90;;;;;;5071136;28;20573;-76
2022/07/29 04:36:25;;;;;;;7.57;2.20;;;16.40;99.90;;;;;;5056768;28;20024;-75
2022/07/29 04:38:50;;;;;;;5.47;2.45;;;16.50;99.90;;;;;;5071181;28;20029;-75
2022/07/29 04:41:16;;;;;;;3.47;2.00;;;16.50;99.90;;;;;;5070708;28;20028;-76
2022/07/29 04:43:41;;;;;;;6.45;2.60;;;16.40;99.90;;;;;;5070555;28;20567;-76
2022/07/29 04:46:07;;;;;;;5.25;2.10;;;16.40;99.90;;;;;;5070219;28;20021;-75
2022/07/29 04:48:33;;;;;;;6.70;2.10;;;16.40;99.90;;;;;;5070782;28;20021;-76
2022/07/29 04:50:59;;;;;;;5.15;2.10;;;16.40;99.90;;;;;;5070315;28;20391;-75
2022/07/29 04:53:25;;;;;;;4.68;2.42;;;16.40;99.90;;;;;;5070471;28;20016;-75
2022/07/29 04:55:50;;;;;;;4.88;2.35;;;16.40;99.90;;;;;;5070206;28;20020;-76
2022/07/29 04:58:16;;;;;;;4.63;2.05;;;16.40;99.90;;;;;;5069831;28;20029;-76
2022/07/29 05:00:42;;;;;;;4.63;2.40;;;16.40;99.90;;;;;;5070350;28;20099;-75
2022/07/29 05:03:07;;;;;;;6.68;2.70;;;16.40;99.90;;;;;;5070114;28;20035;-76
2022/07/29 05:05:33;;;;;;;3.25;2.03;;;16.40;99.90;;;;;;5070142;28;20491;-76
2022/07/29 05:07:58;;;;;;;5.75;2.38;;;16.30;99.90;;;;;;5070110;28;20478;-75
2022/07/29 05:10:24;;;;;;;5.22;2.38;;;16.40;99.90;;;;;;5069859;28;20070;-75
2022/07/29 05:12:50;;;;;;;3.85;2.20;;;16.30;99.90;;;;;;5070197;28;20416;-75
2022/07/29 05:15:17;;;;;;;5.82;2.53;;;16.30;99.90;;;;;;5070194;28;20571;-76
2022/07/29 05:17:43;;;;;;;4.85;2.35;;;16.30;99.90;;;;;;5065677;28;20017;-76
2022/07/29 05:20:09;;;;;;;7.63;2.42;;;16.30;99.90;;;;;;5060721;28;20016;-76
2022/07/29 05:22:34;;;;;;;3.45;2.22;;;16.40;99.90;;;;;;5069667;28;20041;-76
2022/07/29 05:25:00;;;;;;;5.05;2.22;;;16.30;99.90;;;;;;5069866;28;20106;-75
2022/07/29 05:27:25;;;;;;;7.43;2.25;;;16.40;99.90;;;;;;5069945;28;20094;-76
2022/07/29 05:29:51;;;;;;;5.85;2.35;;;16.40;99.90;;;;;;5070004;28;20023;-76
2022/07/29 05:32:17;;;;;;;5.95;2.20;;;16.50;99.90;;;;;;5070361;28;20095;-76
2022/07/29 05:34:43;;;;;;;5.65;2.10;;;16.50;99.90;;;;;;5070159;28;20132;-75
2022/07/29 05:37:08;;;;;;;2.63;1.73;;;16.60;99.90;;;;;;5059620;28;20568;-76
2022/07/29 05:39:34;;;;;;;3.30;2.20;;;16.70;99.90;;;;;;5066402;28;20510;-75
2022/07/29 05:41:59;;;;;;;2.80;1.92;;;16.70;99.90;;;;;;5058901;28;20029;-75
2022/07/29 05:44:25;;;;;;;3.63;2.00;;;16.80;99.90;;;;;;5070047;28;20027;-75
2022/07/29 05:46:50;;;;;;;5.35;2.38;;;16.90;99.90;;;;;;5070138;28;20033;-77
2022/07/29 05:49:16;;;;;;;7.03;2.53;;;17.00;99.90;;;;;;5070042;28;20500;-75
2022/07/29 05:51:42;;;;;;;3.90;2.15;;;17.00;99.90;;;;;;5070246;28;20088;-76
2022/07/29 05:54:07;;;;;;;4.30;1.85;;;17.10;99.90;;;;;;5069717;28;20384;-75
2022/07/29 05:56:33;;;;;;;6.00;2.20;;;17.20;99.90;;;;;;5069671;28;20070;-75
2022/07/29 05:58:58;;;;;;;4.95;2.08;;;17.20;99.90;;;;;;5073721;28;20036;-75
2022/07/29 06:01:24;;;;;;;8.25;2.42;;;17.30;99.90;;;;;;5073740;28;20025;-76
2022/07/29 06:03:50;;;;;;;5.47;2.03;;;17.30;99.90;;;;;;5073501;28;20070;-75
2022/07/29 06:06:15;;;;;;;6.75;2.20;;;17.40;99.90;;;;;;5073460;28;20526;-76
2022/07/29 06:08:41;;;;;;;7.45;2.05;;;17.50;99.90;;;;;;5073186;28;20032;-76
2022/07/29 06:11:08;;;;;;;5.28;2.10;;;17.50;99.90;;;;;;5073601;28;20020;-78
2022/07/29 06:13:34;;;;;;;4.75;2.10;;;17.60;99.90;;;;;;5073710;28;20070;-75
2022/07/29 06:15:59;;;;;;;6.38;2.05;;;17.70;99.90;;;;;;5073460;28;20024;-75
2022/07/29 06:18:25;;;;;;;5.10;2.10;;;17.80;99.90;;;;;;5073271;28;20025;-76
2022/07/29 06:20:51;;;;;;;4.88;2.25;;;17.80;99.90;;;;;;5072881;28;20031;-76
2022/07/29 06:23:18;;;;;;;6.28;1.88;;;17.90;99.90;;;;;;5064835;28;20107;-77
2022/07/29 06:25:43;;;;;;;4.53;1.98;;;18.00;99.90;;;;;;5067548;28;20024;-75
2022/07/29 06:28:09;;;;;;;5.88;1.77;;;18.00;99.90;;;;;;5073009;28;20495;-76
2022/07/29 06:30:35;;;;;;;7.65;2.40;;;18.00;99.90;;;;;;5073164;28;20020;-76
2022/07/29 06:33:01;;;;;;;6.20;1.92;;;18.10;99.90;;;;;;5073061;28;20024;-75
2022/07/29 06:35:27;;;;;;;7.03;1.77;;;18.10;99.90;;;;;;5073467;28;20020;-76
2022/07/29 06:37:53;;;;;;;3.53;2.00;;;18.20;99.90;;;;;;5073000;28;20099;-77
2022/07/29 06:43:05;;;;;;;5.38;1.90;;;18.20;99.90;;;;;;5020135;28;20033;-75
2022/07/29 06:45:33;;;;;;;6.20;2.03;;;18.30;99.90;;;;;;5072679;28;20055;-76
2022/07/29 06:47:59;;;;;;;4.95;1.90;;;18.30;99.90;;;;;;5072689;28;20029;-76
2022/07/29 06:50:25;;;;;;;7.10;2.00;;;18.40;99.90;;;;;;5072520;28;20021;-76
2022/07/29 06:52:50;;;;;;;3.35;1.70;;;18.50;99.90;;;;;;5072829;28;20446;-76
2022/07/29 06:55:16;;;;;;;7.22;2.20;;;18.50;99.70;;;;;;5058450;28;20033;-76
2022/07/29 06:57:41;;;;;;;5.55;1.60;;;18.70;99.60;;;;;;5072399;28;20032;-75
2022/07/29 07:00:08;;;;;;;4.90;2.03;;;18.70;99.40;;;;;;5073051;28;20077;-77
2022/07/29 07:02:33;;;;;;;3.17;1.90;;;18.80;99.20;;;;;;5072788;28;20494;-76
2022/07/29 07:04:59;;;;;;;3.97;1.58;;;18.90;99.00;;;;;;5072668;28;20129;-76
2022/07/29 07:07:25;;;;;;;4.43;2.15;;;19.00;98.80;;;;;;5072504;28;20480;-76
2022/07/29 07:09:50;;;;;;;6.50;1.92;;;19.00;98.60;;;;;;5063018;28;20044;-76
2022/07/29 07:12:16;;;;;;;7.25;1.90;;;19.10;98.40;;;;;;5070307;28;20028;-76
2022/07/29 07:14:42;;;;;;;8.38;1.77;;;19.10;98.40;;;;;;5072455;28;20021;-76
2022/07/29 07:17:07;;;;;;;4.43;1.83;;;19.20;98.30;;;;;;5072961;28;20425;-75
2022/07/29 07:19:33;;;;;;;7.15;1.90;;;19.20;98.20;;;;;;5072276;28;20096;-76
2022/07/29 07:21:58;;;;;;;5.95;2.00;;;19.20;98.10;;;;;;5072304;28;20079;-76
2022/07/29 07:24:24;;;;;;;6.60;2.03;;;19.20;98.10;;;;;;5072162;28;20509;-76
2022/07/29 07:26:50;;;;;;;4.45;2.10;;;19.20;97.90;;;;;;5072136;28;20039;-76
2022/07/29 07:29:16;;;;;;;5.72;2.50;;;19.20;97.70;;;;;;5072374;28;20032;-77
2022/07/29 07:31:42;;;;;;;3.80;2.17;;;19.20;97.60;;;;;;5072214;28;20051;-76
2022/07/29 07:34:07;;;;;;;7.25;2.30;;;19.10;97.70;;;;;;5058557;28;20032;-77
2022/07/29 07:36:33;;;;;;;5.00;2.20;;;19.10;97.70;;;;;;5071590;28;20111;-76
2022/07/29 07:38:58;;;;;;;4.00;1.95;;;19.10;97.90;;;;;;5072053;28;20031;-76
2022/07/29 07:41:24;;;;;;;2.35;2.10;;;19.10;97.90;;;;;;5071566;28;20031;-76
2022/07/29 07:43:50;;;;;;;5.80;2.17;;;19.30;97.90;;;;;;5071759;28;20124;-76
2022/07/29 07:46:15;;;;;;;5.25;2.08;;;19.40;97.80;;;;;;5053745;28;20025;-76
2022/07/29 07:48:41;;;;;;;7.47;2.35;;;19.50;97.50;;;;;;5071740;28;20020;-76
2022/07/29 07:51:07;;;;;;;7.43;2.45;;;19.60;97.30;;;;;;5071708;28;20417;-76
2022/07/29 07:53:32;;;;;;;5.10;2.15;;;19.70;97.20;;;;;;5071661;28;20388;-76
2022/07/29 07:55:59;;;;;;;7.57;2.58;;;19.80;97.00;;;;;;5071557;28;20077;-76
2022/07/29 07:58:24;;;;;;;4.63;2.40;;;19.80;96.90;;;;;;5057670;28;20387;-76
2022/07/29 08:00:50;;;;;;;6.60;2.72;;;19.80;97.10;;;;;;5071427;28;20035;-75
2022/07/29 08:03:15;;;;;;;4.03;2.42;;;19.80;97.10;;;;;;5071457;28;20578;-76
2022/07/29 08:05:41;;;;;;;7.57;2.53;;;19.90;97.30;;;;;;5071280;28;20038;-76
2022/07/29 08:08:07;;;;;;;13.70;2.83;;;19.90;97.20;;;;;;5071458;28;20091;-76
2022/07/29 08:13:17;;;;;;;5.15;2.45;;;19.90;97.20;;;;;;5071779;28;20039;-76
2022/07/29 08:15:44;;;;;;;4.13;2.47;;;20.00;97.10;;;;;;5070837;28;20450;-76
2022/07/29 08:18:10;;;;;;;4.78;2.50;;;20.20;97.10;;;;;;5071601;28;20088;-76
2022/07/29 08:20:38;;;;;;;5.72;2.92;;;20.40;96.70;;;;;;5070974;28;20112;-76
2022/07/29 08:23:04;;;;;;;6.60;2.47;;;20.50;96.30;;;;;;5071390;28;20051;-76
2022/07/29 08:25:30;;;;;;;8.10;2.42;;;20.70;96.10;;;;;;5070728;28;20040;-75
2022/07/29 08:27:56;;;;;;;5.45;2.83;;;20.90;96.00;;;;;;5071070;28;20112;-77
2022/07/29 08:30:21;;;;;;;4.00;2.30;;;21.20;95.90;;;;;;5070908;28;20024;-76
2022/07/29 08:32:48;;;;;;;8.30;2.40;;;21.40;95.40;;;;;;5071311;28;20475;-76
2022/07/29 08:35:13;;;;;;;7.00;2.78;;;21.70;95.10;;;;;;5071214;28;20111;-76
2022/07/29 08:37:39;;;;;;;5.47;2.70;;;21.90;94.40;;;;;;5071140;28;20490;-76
2022/07/29 08:40:06;;;;;;;5.43;2.60;;;22.00;94.10;;;;;;5070995;28;20082;-76
2022/07/29 08:42:31;;;;;;;5.45;2.65;;;22.10;93.80;;;;;;5071020;28;20099;-75
2022/07/29 08:44:58;;;;;;;8.25;2.95;;;22.30;93.50;;;;;;5070854;28;20111;-77
2022/07/29 08:47:26;;;;;;;5.82;2.50;;;22.40;92.90;;;;;;5070907;28;20519;-76
2022/07/29 08:49:51;;;;;;;10.68;2.47;;;22.40;92.80;;;;;;5071083;28;20020;-76
2022/07/29 08:52:18;;;;;;;6.95;2.50;;;22.50;92.80;;;;;;5071156;28;20021;-76
2022/07/29 08:54:45;;;;;;;6.28;2.55;;;22.60;92.70;;;;;;5070469;28;20177;-75
2022/07/29 08:57:13;;;;;;;7.13;2.75;;;22.80;92.50;;;;;;5070752;28;20028;-76
2022/07/29 08:59:40;;;;;;;7.15;3.03;;;22.90;91.80;;;;;;5070389;28;20029;-76
2022/07/29 09:02:15;;;;;;;5.60;2.67;;;23.00;91.70;;;;;;5070235;28;20102;-76
2022/07/29 09:04:41;;;;;;;4.90;2.42;;;23.10;91.40;;;;;;5070911;28;20476;-76
2022/07/29 09:07:07;;;;;;;9.10;2.75;;;23.20;91.10;;;;;;5070236;28;20044;-76
2022/07/29 09:09:33;;;;;;;13.57;3.05;;;23.30;90.90;;;;;;5070212;28;20020;-77
2022/07/29 09:11:59;;;;;;;7.40;2.75;;;23.30;90.60;;;;;;5070199;28;20028;-76
2022/07/29 09:14:25;;;;;;;5.70;2.63;;;23.30;90.80;;;;;;5070192;28;20070;-77
2022/07/29 09:16:52;;;;;;;6.20;3.22;;;23.30;90.40;;;;;;5070137;28;20052;-76
2022/07/29 09:19:34;;;;;;;9.10;2.40;;;23.40;90.00;;;;;;5070199;28;20436;-76
2022/07/29 09:22:00;;;;;;;8.95;3.00;;;23.50;89.70;;;;;;5070127;28;20080;-76
2022/07/29 09:24:34;;;;;;;6.43;2.00;;;23.60;89.10;;;;;;5069832;28;20464;-76
2022/07/29 09:27:00;;;;;;;4.25;2.55;;;23.70;88.50;;;;;;5070383;28;20032;-76
2022/07/29 09:29:27;;;;;;;5.82;2.45;;;23.90;87.90;;;;;;5070140;28;20024;-76
2022/07/29 09:31:54;;;;;;;7.72;2.88;;;24.00;87.30;;;;;;5071201;28;20012;-76
2022/07/29 09:34:25;;;;;;;7.35;2.38;;;24.10;86.00;;;;;;5074534;28;20020;-76
2022/07/29 09:36:53;;;;;;;7.20;2.65;;;24.20;85.70;;;;;;5074542;28;20021;-76
2022/07/29 09:39:28;;;;;;;6.20;2.38;;;24.20;85.20;;;;;;5073939;28;20028;-76
2022/07/29 09:41:56;;;;;;;8.00;2.55;;;24.30;84.30;;;;;;5074456;28;20044;-76
2022/07/29 09:44:22;;;;;;;6.45;2.78;;;24.40;84.00;;;;;;5074237;28;20029;-76
2022/07/29 09:47:05;;;;;;;3.58;2.65;;;24.50;83.50;;;;;;5060041;28;20020;-75
2022/07/29 09:49:32;;;;;;;6.68;2.72;;;24.60;83.60;;;;;;5074104;28;20473;-76
2022/07/29 09:52:05;;;;;;;3.97;2.63;;;24.80;82.90;;;;;;5074289;28;20025;-76
2022/07/29 09:54:36;;;;;;;6.13;3.28;;;24.90;81.50;;;;;;5073423;28;20051;-76
2022/07/29 09:57:06;;;;;;;6.63;3.03;;;25.00;79.80;;;;;;5073978;28;20385;-76
2022/07/29 09:59:33;;;;;;;8.02;3.22;;;25.00;79.70;;;;;;5074134;28;20107;-76
2022/07/29 10:01:59;;;;;;;8.02;3.30;;;25.10;79.60;;;;;;5073640;28;20029;-76
2022/07/29 10:04:37;;;;;;;8.63;3.25;;;25.10;79.40;;;;;;5073666;28;20028;-76
2022/07/29 10:07:04;;;;;;;10.85;3.20;;;25.20;79.60;;;;;;5073880;28;20497;-76
2022/07/29 10:09:31;;;;;;;6.93;3.50;;;25.40;80.00;;;;;;5074238;28;20368;-76
2022/07/29 10:12:08;;;;;;;5.95;2.90;;;25.50;79.30;;;;;;5073889;28;20107;-76
2022/07/29 10:14:35;;;;;;;6.95;3.40;;;25.80;78.70;;;;;;5061120;28;20043;-76
2022/07/29 10:17:01;;;;;;;6.88;3.38;;;25.70;77.80;;;;;;5075304;28;20017;-75
2022/07/29 10:19:32;;;;;;;7.28;3.35;;;25.80;77.70;;;;;;5073757;28;20532;-77
2022/07/29 10:21:59;;;;;;;9.25;3.90;;;25.90;76.70;;;;;;5073319;28;20056;-76
2022/07/29 10:24:29;;;;;;;8.65;3.22;;;25.90;76.90;;;;;;5073720;28;20036;-76
2022/07/29 10:26:56;;;;;;;9.20;3.67;;;26.00;76.80;;;;;;5073624;28;20024;-78
2022/07/29 10:29:21;;;;;;;10.00;3.38;;;26.00;75.80;;;;;;5073680;28;20038;-76
2022/07/29 10:32:15;;;;;;;12.25;3.88;;;26.10;75.40;;;;;;5073684;28;20039;-76
2022/07/29 10:35:17;;;;;;;11.25;3.58;;;26.30;74.30;;;;;;5073600;28;20019;-76
2022/07/29 10:38:04;;;;;;;8.93;3.10;;;26.50;73.20;;;;;;5073289;28;20491;-76
2022/07/29 10:43:35;;;;;;;8.00;2.95;;;26.40;71.00;;;;;;5073122;28;20031;-76
2022/07/29 10:46:02;;;;;;;7.72;3.22;;;26.40;70.70;;;;;;5073926;28;20028;-76
2022/07/29 10:48:28;;;;;;;8.20;2.90;;;26.50;70.70;;;;;;5073330;28;20392;-76
2022/07/29 10:51:03;;;;;;;10.10;2.90;;;26.50;70.80;;;;;;5073690;28;20020;-75
2022/07/29 10:53:52;;;;;;;5.93;2.08;;;26.50;70.50;;;;;;5072836;28;20021;-76
2022/07/29 10:56:29;;;;;;;5.63;2.30;;;26.50;69.90;;;;;;5073652;28;20039;-77
2022/07/29 10:59:20;;;;;;;7.60;1.88;;;26.70;70.20;;;;;;5065485;28;20021;-76
2022/07/29 11:01:46;;;;;;;7.22;2.30;;;27.00;69.80;;;;;;5070290;28;20021;-76
2022/07/29 11:04:12;;;;;;;6.15;2.38;;;27.10;67.90;;;;;;5072691;28;20037;-76
2022/07/29 11:07:00;;;;;;;6.18;2.00;;;27.20;66.60;;;;;;5072931;28;20036;-76
2022/07/29 11:09:26;;;;;;;10.63;2.30;;;27.40;65.50;;;;;;5059187;28;20020;-76
2022/07/29 11:11:52;;;;;;;6.35;1.92;;;27.50;64.60;;;;;;5072997;28;20024;-76
2022/07/29 11:14:38;;;;;;;8.00;1.92;;;27.60;63.40;;;;;;5072650;28;20376;-77
2022/07/29 11:17:05;;;;;;;5.35;1.88;;;27.60;62.40;;;;;;5072921;28;20480;-77
2022/07/29 11:19:32;;;;;;;5.40;1.58;;;27.40;61.40;;;;;;5073408;28;20013;-76
2022/07/29 11:21:58;;;;;;;7.07;1.73;;;27.50;61.20;;;;;;5072481;28;20059;-76
2022/07/29 11:24:31;;;;;;;9.23;1.75;;;27.50;60.60;;;;;;5072404;28;20280;-76
2022/07/29 11:27:14;;;;;;;6.55;1.60;;;27.60;60.20;;;;;;5072910;28;20067;-76
2022/07/29 11:29:51;;;;;;;5.57;1.85;;;27.70;58.10;;;;;;5072850;28;20020;-76
2022/07/29 11:32:21;;;;;;;5.82;2.20;;;27.60;57.80;;;;;;5072933;28;20517;-76
2022/07/29 11:34:48;;;;;;;7.28;1.88;;;27.60;57.90;;;;;;5072482;28;20071;-76
2022/07/29 11:37:15;;;;;;;4.70;1.33;;;27.70;57.90;;;;;;5072140;28;20024;-76
2022/07/29 11:39:42;;;;;;;4.80;1.30;;;27.90;56.90;;;;;;5072775;28;20019;-76
2022/07/29 11:42:19;;;;;;;5.07;1.58;;;28.10;54.80;;;;;;5072742;28;20354;-77
2022/07/29 11:44:58;;;;;;;5.10;1.27;;;28.20;52.70;;;;;;5072062;28;20025;-76
2022/07/29 11:47:29;;;;;;;4.47;1.52;;;28.10;52.70;;;;;;5072122;28;20048;-76
2022/07/29 11:49:56;;;;;;;5.45;1.65;;;28.00;52.80;;;;;;5071774;28;20047;-76
2022/07/29 11:52:23;;;;;;;8.15;1.88;;;27.80;53.50;;;;;;5071505;28;20036;-76
2022/07/29 11:54:50;;;;;;;7.65;2.40;;;27.70;54.00;;;;;;5070792;28;20032;-76
2022/07/29 11:57:20;;;;;;;4.80;2.72;;;27.70;55.20;;;;;;5071792;28;20123;-76
2022/07/29 11:59:47;;;;;;;6.03;2.45;;;27.70;56.70;;;;;;5054012;28;20043;-76
2022/07/29 12:02:14;;;;;;;5.22;2.30;;;27.70;56.40;;;;;;5072051;28;20028;-76
2022/07/29 12:04:54;;;;;;;3.83;1.80;;;27.80;56.40;;;;;;5071659;28;20569;-76
2022/07/29 12:07:30;;;;;;;5.18;2.28;;;28.00;56.70;;;;;;5053770;28;20034;-76
2022/07/29 12:09:56;;;;;;;5.13;2.20;;;28.10;56.40;;;;;;5071780;28;20024;-76
2022/07/29 12:12:22;;;;;;;6.00;1.85;;;28.10;56.40;;;;;;5071703;28;20034;-76
2022/07/29 12:14:48;;;;;;;11.48;2.40;;;28.10;56.90;;;;;;5053382;28;20024;-77
2022/07/29 12:17:29;;;;;;;7.70;2.35;;;28.20;56.50;;;;;;5071679;28;20025;-76
2022/07/29 12:19:59;;;;;;;8.38;2.40;;;28.40;56.40;;;;;;5071470;28;20021;-77
2022/07/29 12:22:37;;;;;;;8.32;2.42;;;28.40;56.20;;;;;;5071617;28;20068;-77
2022/07/29 12:25:07;;;;;;;5.00;2.03;;;28.10;56.90;;;;;;5071463;28;20463;-76
2022/07/29 12:27:33;;;;;;;3.92;2.10;;;27.90;57.40;;;;;;5071720;28;20059;-76
2022/07/29 12:30:02;;;;;;;12.80;2.25;;;27.70;57.70;;;;;;5071318;28;20028;-76
2022/07/29 12:32:32;;;;;;;5.57;2.80;;;27.80;58.10;;;;;;5071474;28;20028;-76
2022/07/29 12:34:59;;;;;;;4.63;1.90;;;27.70;57.60;;;;;;5057848;28;20480;-76
2022/07/29 12:37:24;;;;;;;5.95;2.05;;;27.60;57.60;;;;;;5071163;28;20034;-76
2022/07/29 12:39:50;;;;;;;4.47;2.17;;;27.70;57.80;;;;;;5071276;28;20096;-76
2022/07/29 12:42:17;;;;;;;3.88;2.13;;;27.80;57.30;;;;;;5071373;28;20052;-76
2022/07/29 12:44:48;;;;;;;6.90;1.90;;;27.90;56.80;;;;;;5071030;28;20721;-75
2022/07/29 12:47:14;;;;;;;5.45;2.20;;;27.90;56.60;;;;;;5070848;28;20051;-76
2022/07/29 12:49:40;;;;;;;5.32;2.05;;;27.70;56.60;;;;;;5070612;28;20472;-75
2022/07/29 12:52:24;;;;;;;7.88;2.47;;;27.70;56.60;;;;;;5071212;28;20069;-76
2022/07/29 12:54:50;;;;;;;5.22;1.90;;;27.80;56.80;;;;;;5071049;28;20035;-76
2022/07/29 12:57:16;;;;;;;5.85;2.08;;;27.90;56.70;;;;;;5071173;28;20543;-76
2022/07/29 12:59:42;;;;;;;6.05;1.98;;;28.10;56.00;;;;;;5070806;28;20039;-78
2022/07/29 13:02:23;;;;;;;7.38;2.15;;;28.00;56.40;;;;;;5071252;28;20074;-76